Aktualne dane pomiarowe

Uwaga, wersja testowa! Automatyczne pobieranie danych za pomocą narzędzi lub skryptów to umożliwiających jest zabronione.

Dane meteo z obszaru Polski uzyskane na podstawie depesz SYNOP pobieranych co godzinę z NWS. Najedź myszką na symbol przedstawiony w tabeli, aby uzyskać informacje co do jego znaczenia. Prosimy pamiętać, że to testowa wersja strony, która jeszcze nie jest ukończona. Stworzono również jest krótki FAQ dotyczący korzystania z tej podstrony Anomalie temperatury w chwili obecnej odniesione są do okresu referencyjnego 1951-2016. Okres ten będzie później zmieniony na 1981-2010. Kliknij ikonę aby pobrać plik CSV. Kliknij ikonę aby wygenerować mapę synoptyczną dla danego terminu.

Wybierz Datę:    

        

Radom (12485)

Dane terminowe dla wybranej stacji. Kliknij datę, aby otrzymać dane z tego terminu dla wszystkich stacji.

TemperaturaZachmurzenieWiatrCiśnienieOpadyPogoda
 Data t td wb tx tn tg rh  Nt Nl Cl Cm Ch ws wd g1 g2 wx mslp ppp ch 24h 12h t ww ww w1 w2  
2019-07-07 23:00:00 13.1 6.8 9.4--- 6610.0wxwxwx4wx---1009.4 987.5 1.2---------
2019-07-07 22:00:00 13.9 6.3 9.5--- 6010.0wxwxwx3wx---1008.7 986.9 0.7---------
2019-07-07 21:00:00 14.7 6.0 9.8--- 5610.0wxwxwx3wx---1008.5 986.7 -1.1---------
2019-07-07 20:00:00 15.6 5.2 9.9--- 5010.0wxwxwx3wx---1008.0 986.3 -1.5---------
2019-07-07 19:00:00 17.0 5.0 10.5--- 4510.0wxwxwx4wx---1007.8 986.2 -1.6---------
2019-07-07 18:00:00 18.0 4.9 11.0--- 4210.0wxwxwx5wx---1007.1 985.6 -1.5---------
2019-07-07 17:00:00 19.7 6.1 12.2--- 4110.0wxwxwxwx6wx---1006.1 984.7 -0.1---------
2019-07-07 16:00:00 20.6 5.8 12.5--- 3810.0wxwxwxwx5wx---1005.9 984.6 -0.5---------
2019-07-07 15:00:00 21.2 5.6 12.7--- 3610.0wxwxwxwx8wx---1005.4 984.2 -1.1---------
2019-07-07 14:00:00 20.1 7.2 12.9--- 4310.0wxwxwxwx6wx---1006.1 984.8 -0.7---------
2019-07-07 13:00:00 18.6 11.4 14.1--- 6310.0wxwxwxwx6wx---1006.5 985.1 0.1---------
2019-07-07 12:00:00 15.0 11.8 12.9--- 8110.0wxwxwxwx6wx---1007.1 985.4 0.5---------
2019-07-07 11:00:00 14.3 11.5 12.4--- 8310.0wxwxwx6wx---1007.3 985.5 0.9---wx-w1--
2019-07-07 10:00:00 15.1 10.9 12.4--- 7610.0wxwxwx6wx---1006.7 985.0 0.6---------
2019-07-07 09:00:00 15.5 12.8 13.7--- 8410.0wxwxwx5wx---1006.6 984.9 0.9---------
2019-07-07 08:00:00 16.0 12.8 13.8--- 8110.0wxwxwx5wx---1006.2 984.6 1.0---------
2019-07-07 07:00:00 16.9 13.6 14.7--- 8110.0wxwxwx4wx---1006.0 984.4 1.1---------
2019-07-07 06:00:00 17.4 13.7 14.9--- 7910.0wxwxwxwx6wx---1005.5 984.0 1.0---------
2019-07-07 05:00:00 16.2 14.2 14.8--- 8810.0wxwxwxwxwx3wx---1005.1 983.5 -0.4---------
2019-07-07 04:00:00 15.2 13.9 14.3--- 9210.0wxwxwxwx2wx---1005.0 983.3 -1.1---------
2019-07-07 03:00:00 14.5 13.9 14.0--- 968.0wx-wx2wx---1004.7 983.0 -1.2---wx-w1w2--
2019-07-07 02:00:00 14.9 13.8 14.1--- 9310.0wxwxwxwx1wx---1005.6 983.9 -0.1---wx-w1w2--
2019-07-07 01:00:00 16.4 12.7 13.9--- 7910.0wxwxwxwx2wx---1005.8 984.2 0.8---wx---
2019-07-07 00:00:00 16.3 13.0 14.1--- 8110.0wx-wx1wx---1005.8 984.2 0.6---------
2019-07-06 23:00:00 16.3 13.2 14.2--- 8210.0wx-wx1wx---1005.4 983.8 -0.3---------
2019-07-06 22:00:00 16.5 13.0 14.1--- 8010.0wx-wxwx2wx---1004.8 983.2 -1.7---------
2019-07-06 21:00:00 17.7 13.0 14.6--- 7410.0wx-wx2wx---1005.1 983.6 -1.6---------
2019-07-06 20:00:00 18.5 13.2 15.0--- 7110.0wx-wx2wx---1005.6 984.2 -1.3---------
2019-07-06 19:00:00 19.1 12.8 15.1--- 6710.0wx-wx2wx---1006.3 984.9 -0.9---wx---
2019-07-06 18:00:00 19.8 12.6 15.2--- 6310.0wx-wx2wx---1006.6 985.2 -1.1---------
2019-07-06 17:00:00 21.1 12.0 15.5--- 5610.0wx-wx2wx---1006.8 985.5 -1.3---------
2019-07-06 16:00:00 22.7 11.2 15.8--- 4810.0wx-wx2wx---1007.0 985.8 -1.2---------
2019-07-06 15:00:00 23.0 11.4 16.0--- 4810.0wx-wx4wx---1007.4 986.3 -1.1---------
2019-07-06 14:00:00 22.9 11.0 15.8--- 4710.0wxwxwxwx6wx---1008.0 986.8 -1.2---------
2019-07-06 13:00:00 22.4 10.2 15.2--- 4610.0wxwxwxwx5wx---1008.2 987.0 -1.5---------
2019-07-06 12:00:00 21.6 11.1 15.3--- 5110.0wxwxwxwx5wx---1008.7 987.4 -1.4---------
2019-07-06 11:00:00 20.8 11.2 15.0--- 5410.0wxwxwxwx5wx---1009.3 988.0 -1.3---------
2019-07-06 10:00:00 19.9 11.2 14.6--- 5710.0wxwxwxwx6wx---1009.9 988.5 -1.2---------
2019-07-06 09:00:00 19.9 11.4 14.7--- 5810.0wxwxwxwx5wx---1010.2 988.8 -0.9---------
2019-07-06 08:00:00 18.2 11.3 13.9--- 6410.0wxwxwx4wx---1010.9 989.3 -0.4---------
2019-07-06 07:00:00 16.6 12.0 13.6--- 7410.0wxwxwx2wx---1011.4 989.7 -0.1---------
2019-07-06 06:00:00 15.7 11.1 12.7--- 7410.0wxwxwxwx3wx---1011.5 989.7 0.1---------
2019-07-06 05:00:00 15.5 11.3 12.8--- 7610.0wxwxwxwx4wx---1011.5 989.7 0.0---------
2019-07-06 04:00:00 14.3 10.5 11.8--- 7810.0wxwxwxwx4wx---1011.7 989.8 -0.1---------
2019-07-06 03:00:00 13.9 9.9 11.3--- 7710.0wxwxwxwx4wx---1011.5 989.6 -0.5---------
2019-07-06 02:00:00 13.7 9.8 11.2--- 7710.0wx-wx4wx---1011.6 989.7 -0.4---------
2019-07-06 01:00:00 12.8 9.6 10.7--- 8110.0wx-wx3wx---1012.0 990.0 0.1---------
2019-07-06 00:00:00 14.2 10.0 11.5--- 7610.0wx-wx4wx---1012.1 990.2 0.2---------
1.4 ms

 

Print Friendly, PDF & Email